x

Saginaw Bay Light #1, Mi (sblm4) Weather Station

2:00am - Sun 23rd Apr 2017 All times are CDT. -5 hours from GMT.

  • Wind
    13mph, 15mph gusts
  • Air Temp 51°f
  • Sea Pressure 1018.6mb
  • Saginaw Bay Light #1, Mi
  • Saginaw Bay Light #1, Mi

More Historic Weather Station data

Upgrade to MSW Pro to gain access to the past 30 days of data for over 8000 Wavebouys and Weather Stations around the globe.

Join Pro

Comparision Forecast

View Surf forecast
   
Sun 04/23 2:00am 13 15 mph 1018.6mb 51f
1:50am 14 15 mph 1018.6mb 51f
1:40am 14 15 mph 1018.6mb 51f
1:30am 14 16 mph 1019mb 51f
1:20am 14 15 mph 1019mb 51f
1:10am 13 14 mph 1019mb 51f
1:00am 11 13 mph 1019.3mb 51f
12:50am 11 13 mph 1019.3mb 51f
12:40am 11 13 mph 1019.3mb 51f
12:30am 10 11 mph 1019.3mb 51f
12:20am 8 9 mph 1019.6mb 51f
12:10am 7
mph
1019.6mb 51f
12:00am 7
mph
1019.6mb 51f
Sat 04/22 11:50pm 6 7 mph 1019.6mb 50f
11:40pm 6 7 mph 1019.6mb 50f
11:30pm 7
mph
1019.6mb 50f
11:20pm 7 8 mph 1019.6mb 50f
11:10pm 7
mph
1019.3mb 50f
11:00pm 6
mph
1019.6mb 50f
10:50pm 5
mph
1019.6mb 50f
10:40pm 5
mph
1019.6mb 51f
10:30pm 3 5 mph 1019.6mb 50f
10:20pm 5 6 mph 1019.6mb 50f
10:10pm 6 7 mph 1019.6mb 50f
10:00pm 6 7 mph 1019.6mb 51f
9:50pm 6 7 mph 1019.6mb 50f
9:40pm 6 7 mph 1019.6mb 50f
9:30pm 6 7 mph 1019.6mb 50f
9:20pm 6 7 mph 1019.6mb 50f
9:10pm 7
mph
1019.6mb 50f
9:00pm 6 8 mph 1019.6mb 50f
8:50pm 7 8 mph 1019.6mb 50f
8:40pm 7
mph
1019.6mb 50f
8:30pm 6 7 mph 1019.6mb 50f
8:20pm 6
mph
1019.3mb 50f
8:10pm 6
mph
1019.3mb 50f
8:00pm 5
mph
1019.3mb 50f
7:00pm 7
mph
1019.3mb 51f
6:50pm 6 7 mph 1019.3mb 51f
6:40pm 6
mph
1019.3mb 51f
6:30pm 5 6 mph 1019.3mb 51f
6:20pm 5 6 mph 1019.6mb 51f
6:10pm 5 6 mph 1019.3mb 51f
6:00pm 5 8 mph 1019.6mb 51f
5:50pm 7 8 mph 1019.6mb 51f
5:40pm 7 8 mph 1019.6mb 50f
5:30pm 6 8 mph 1020mb 50f
5:20pm 8 9 mph 1019.6mb 50f
5:10pm 8 9 mph 1020mb 50f
5:00pm 8 9 mph 1020mb 49f
4:50pm 8 9 mph 1020mb 49f
4:40pm 8 9 mph 1020mb 49f
4:30pm 7 8 mph 1020.3mb 49f
4:20pm 7 8 mph 1020mb 49f
4:10pm 7 8 mph 1020mb 49f
4:00pm 6 8 mph 1020mb 49f
3:50pm 7 8 mph 1020mb 48f
3:40pm 6 8 mph 1020.3mb 48f
3:30pm 8 9 mph 1020.3mb 48f
3:20pm 7 8 mph 1020.3mb 49f
3:10pm 7 8 mph 1020.3mb 48f
3:00pm 7
mph
1020.7mb 49f
2:50pm 6 7 mph 1020.7mb 48f
2:40pm 7
mph
1020.7mb 48f
2:30pm 5 6 mph 1021mb 48f
2:20pm 3 6 mph 1021mb 48f
2:10pm 5 7 mph 1021.3mb 48f
2:00pm 6
mph
1021.3mb 48f
1:50pm 6 7 mph 1021.7mb 49f
1:40pm 6 8 mph 1021.7mb 48f
1:30pm 6 8 mph 1021.7mb 47f
1:20pm 7 8 mph 1021.7mb 47f
1:10pm 7 9 mph 1021.7mb 48f
1:00pm 8 9 mph 1022mb 47f
12:50pm 8 9 mph 1021.7mb 47f
12:40pm 8 9 mph 1021.7mb 47f
12:30pm 7 8 mph 1021.7mb 46f
12:20pm 7 9 mph 1021.7mb 45f
12:10pm 8 9 mph 1021.7mb 45f
12:00pm 9 10 mph 1021.7mb 45f
11:50am 8 10 mph 1021.7mb 45f
11:40am 10 11 mph 1022mb 44f
11:30am 10 11 mph 1021.7mb 44f
11:20am 10 11 mph 1022mb 44f
11:10am 8 10 mph 1022mb 44f
11:00am 9 10 mph 1022mb 44f
10:50am 8 9 mph 1022mb 44f
10:40am 8 9 mph 1022mb 44f
10:30am 8 10 mph 1022mb 44f
10:20am 10 13 mph 1022mb 44f
10:10am 9 11 mph 1022mb 44f
10:00am 8 10 mph 1022mb 44f
9:50am 8 10 mph 1021.7mb 43f
9:40am 8 10 mph 1021.7mb 43f
9:30am 8 10 mph 1021.7mb 43f
9:20am 8 11 mph 1021.7mb 43f
9:10am 9 11 mph 1022mb 43f
9:00am 10 13 mph 1022.4mb 43f
8:50am 11 13 mph 1022.4mb 42f
8:40am 11 14 mph 1022.4mb 42f
8:30am 11 15 mph 1022.4mb 42f
8:20am 11 14 mph 1022mb 42f
8:10am 13 15 mph 1021.7mb 42f
8:00am 14 16 mph 1021.7mb 42f
7:50am 15 17 mph 1021.3mb 42f
7:40am 15 20 mph 1021mb 42f
7:30am 16 18 mph 1020.7mb 42f
7:20am 15 17 mph 1020.7mb 42f
7:10am 15 17 mph 1020.7mb 42f
7:00am 14 17 mph 1020.7mb 42f
6:50am 16 20 mph 1020.3mb 41f
6:40am 18 21 mph 1020.3mb 42f
6:30am 17 21 mph 1020.3mb 42f
6:20am 18 21 mph 1020.3mb 42f
6:10am 20 22 mph 1020mb 42f
6:00am 21 23 mph 1020mb 42f
5:50am 21 22 mph 1020mb 42f
5:40am 17 20 mph 1020mb 42f
5:30am 18 21 mph 1019.6mb 42f
5:20am 17 20 mph 1019.6mb 42f
5:10am 16 18 mph 1020mb 42f
5:00am 16 18 mph 1020mb 42f
4:50am 17 20 mph 1020mb 42f
4:40am 15 18 mph 1019.6mb 42f
4:30am 16 17 mph 1019.6mb 42f
4:20am 15 17 mph 1019.6mb 42f
4:10am 15 18 mph 1019.6mb 42f
4:00am 15 17 mph 1019.6mb 42f
3:50am 16 17 mph 1019.6mb 42f
3:40am 16
mph
1019.6mb 42f
3:30am 15 17 mph 1019.6mb 43f
3:20am 14 17 mph 1019.3mb 43f
3:10am 14 16 mph 1019.3mb 43f
3:00am 14 16 mph 1019.3mb 43f
2:50am 13 17 mph 1019.3mb 43f
2:40am 13 17 mph 1019.3mb 44f
2:30am 13 16 mph 1019.3mb 43f
2:20am 14 16 mph 1019.3mb 43f
2:10am 13 15 mph 1019mb 43f
2:00am 13 16 mph 1019mb 43f
1:50am 14 16 mph 1019mb 44f
1:40am 14 17 mph 1019mb 44f
1:30am 14 15 mph 1019mb 44f
1:20am 11 16 mph 1019mb 44f
1:10am 14 17 mph 1019mb 44f
1:00am 14 16 mph 1019mb 44f
12:50am 13 14 mph 1019.3mb 44f
12:40am 14 15 mph 1019.3mb 44f
12:30am 14 15 mph 1019.3mb 45f
12:20am 14 16 mph 1019.3mb 45f
12:10am 14 15 mph 1019.3mb 45f
12:00am 14 15 mph 1019.3mb 45f
Fri 04/21 11:50pm 13 14 mph 1019.3mb 45f
11:40pm 13 15 mph 1019.3mb 46f
11:30pm 13 14 mph 1019.3mb 46f
11:20pm 13 14 mph 1019.3mb 46f
11:10pm 13 15 mph 1019.3mb 46f
11:00pm 14 16 mph 1019.3mb 46f
10:50pm 13 15 mph 1019.3mb 46f
10:40pm 13 15 mph 1019.6mb 46f
10:30pm 13 16 mph 1019.3mb 46f
10:20pm 14 17 mph 1019.3mb 46f
10:10pm 15 17 mph 1019.3mb 46f
10:00pm 15 17 mph 1019.3mb 46f
9:50pm 14 16 mph 1019.6mb 46f
9:40pm 14 16 mph 1019.3mb 46f
9:30pm 13 15 mph 1019.3mb 46f
9:20pm 13 15 mph 1019.3mb 46f
9:10pm 13 15 mph 1019mb 46f
9:00pm 13 15 mph 1019mb 45f
8:50pm 14 16 mph 1019mb 45f
8:40pm 15 18 mph 1018.6mb 45f
8:30pm 16 18 mph 1018.3mb 45f
8:20pm 15 17 mph 1018.3mb 45f
8:10pm 17 20 mph 1018.3mb 45f
8:00pm 14 17 mph 1018.3mb 46f
7:00pm 15 21 mph 1017.3mb 46f
6:50pm 17 21 mph 1016.9mb 46f
6:40pm 14 18 mph 1016.9mb 46f
6:30pm 17 21 mph 1016.9mb 45f
6:20pm 18 22 mph 1016.6mb 45f
6:10pm 18 21 mph 1016.9mb 45f
6:00pm 17 22 mph 1016.6mb 45f
5:50pm 21 23 mph 1016.6mb 45f
5:40pm 20 24 mph 1016.6mb 45f
5:30pm 23 25 mph 1016.3mb 45f
5:20pm 24 28 mph 1016.3mb 44f
5:10pm 22 28 mph 1016.3mb 44f
5:00pm 23 26 mph 1015.9mb 45f
4:50pm 24 29 mph 1015.9mb 45f
4:40pm 23 26 mph 1015.9mb 46f
4:30pm 22 24 mph 1015.6mb 46f
4:20pm 20 23 mph 1015.6mb 46f
4:10pm 21 24 mph 1015.2mb 46f
4:00pm 20 22 mph 1015.2mb 46f
3:50pm 20 22 mph 1014.9mb 46f
3:40pm 17 22 mph 1014.9mb 46f
3:30pm 17 23 mph 1014.9mb 46f
3:20pm 23 25 mph 1014.6mb 45f
3:10pm 23 28 mph 1014.6mb 45f
3:00pm 23 26 mph 1014.2mb 45f
2:50pm 22 25 mph 1014.2mb 46f
2:40pm 22 24 mph 1014.2mb 46f
2:30pm 20 23 mph 1014.2mb 46f
2:20pm 18 21 mph 1014.2mb 46f
2:10pm 17 21 mph 1013.9mb 45f
2:00pm 21 24 mph 1013.9mb 45f
1:50pm 21 24 mph 1013.9mb 45f
1:40pm 21 24 mph 1013.5mb 45f
1:30pm 20 23 mph 1013.5mb 45f
1:20pm 21 25 mph 1013.9mb 45f
1:10pm 21 24 mph 1013.9mb 44f
1:00pm 20 23 mph 1013.9mb 45f
12:50pm 20 25 mph 1013.9mb 44f
12:40pm 22 26 mph 1013.9mb 44f
12:30pm 23 26 mph 1013.9mb 44f
12:20pm 23 25 mph 1013.9mb 44f
12:10pm 20 25 mph 1013.9mb 43f
12:00pm 22 24 mph 1013.5mb 44f
11:50am 21 25 mph 1013.2mb 44f
11:40am 18 23 mph 1013.2mb 44f
11:30am 20 25 mph 1013.2mb 44f
11:20am 21 24 mph 1013.2mb 44f
11:10am 21 23 mph 1012.9mb 42f
11:00am 18 23 mph 1013.2mb 44f
10:50am 21 26 mph 1012.9mb 43f
10:40am 22 26 mph 1012.9mb 44f
10:30am 24 28 mph 1012.2mb 43f
10:20am 21 26 mph 1012.5mb 43f
10:10am 22 25 mph 1012.2mb 42f
10:00am 22 26 mph 1012.2mb 43f
9:50am 23 29 mph 1012.2mb 43f
9:40am 23 28 mph 1012.2mb 43f
9:30am 21 23 mph 1012.2mb 44f
9:20am 22 25 mph 1011.9mb 44f
9:10am 22 26 mph 1011.5mb 42f
9:00am 21 24 mph 1011.5mb 44f
8:00am 18 21 mph 1011.2mb 43f
7:50am 20 22 mph 1011.2mb 43f
7:40am 18 24 mph 1010.8mb 44f
7:30am 22 24 mph 1010.8mb 43f
7:20am 21 24 mph 1010.8mb 43f
7:10am 21 24 mph 1010.8mb 43f
7:00am 21 24 mph 1010.8mb 43f
6:50am 21 25 mph 1010.5mb 43f
6:40am 22 24 mph 1010.2mb 43f
6:30am 22 25 mph 1010.2mb 43f
6:20am 20 25 mph 1009.8mb 44f
6:10am 21 24 mph 1009.8mb 44f
6:00am 18 24 mph 1009.8mb 44f
5:50am 22 25 mph 1009.8mb 44f
5:40am 21 23 mph 1009.8mb 45f
5:30am 18 24 mph 1009.5mb 45f
5:20am 20 23 mph 1009.5mb 45f
5:10am 20 23 mph 1009.5mb 45f
5:00am 20 22 mph 1009.1mb 46f
4:50am 18 21 mph 1009.1mb 46f
4:40am 16 23 mph 1009.1mb 46f
4:30am 17 22 mph 1009.1mb 46f
4:20am 16 20 mph 1009.1mb 46f
4:10am 17 21 mph 1009.1mb 46f
4:00am 18 24 mph 1009.1mb 46f
3:50am 22 24 mph 1008.8mb 47f
3:40am 18 22 mph 1009.1mb 47f
3:30am 18 22 mph 1008.8mb 48f
3:20am 18 23 mph 1008.8mb 48f
3:10am 22 24 mph 1008.5mb 48f
3:00am 22 24 mph 1008.5mb 48f
2:50am 20 25 mph 1008.5mb 48f
2:40am 21 23 mph 1008.5mb 48f
2:30am 18 22 mph 1008.5mb 49f
2:20am 21 25 mph 1008.5mb 49f
2:10am 21 23 mph 1008.1mb 49f
2:00am 17 22 mph 1008.5mb 49f
1:50am 20 23 mph 1008.1mb 49f
1:40am 17 24 mph 1008.5mb 49f
1:30am 20 22 mph 1008.5mb 49f
1:20am 18 21 mph 1008.5mb 49f
1:10am 20 23 mph 1008.5mb 50f
1:00am 21 25 mph 1008.5mb 50f
12:50am 21 26 mph 1008.1mb 50f
12:40am 21 24 mph 1008.5mb 50f
12:30am 22 24 mph 1008.5mb 50f
12:20am 21 24 mph 1008.5mb 50f
12:10am 21 23 mph 1008.1mb 50f
12:00am 21 24 mph 1008.1mb 50f
Thu 04/20 11:50pm 20 23 mph 1008.1mb 50f
11:40pm 18 21 mph 1008.1mb 51f
11:30pm 18 21 mph 1008.1mb 51f
11:20pm 17 20 mph 1008.1mb 50f
11:10pm 16 17 mph 1008.1mb 51f
11:00pm 15 17 mph 1008.1mb 50f
10:50pm 15 17 mph 1008.5mb 50f
10:40pm 14 16 mph 1008.5mb 50f
10:30pm 15 17 mph 1008.5mb 51f
10:20pm 15 17 mph 1008.5mb 51f
10:10pm 16 21 mph 1008.5mb 51f
10:00pm 18 21 mph 1008.5mb 51f
9:50pm 16 24 mph 1008.5mb 50f
9:40pm 23 28 mph 1008.5mb 51f
9:30pm 20 23 mph 1008.5mb 50f
9:20pm 18 24 mph 1008.1mb 50f
9:10pm 16 17 mph 1008.1mb 49f
9:00pm 13 15 mph 1008.5mb 49f
8:50pm 13 14 mph 1008.5mb 48f
8:40pm 11 13 mph 1008.5mb 48f
8:30pm 11
mph
1008.1mb 48f
8:20pm 10
mph
1008.5mb 48f
8:10pm 8 9 mph 1008.5mb 47f
8:00pm 7 8 mph 1008.1mb 47f
7:50pm 7 9 mph 1008.1mb 46f
7:40pm 9 10 mph 1008.1mb 46f
7:30pm 10
mph
1008.1mb 46f
7:20pm 7 8 mph 1007.8mb 46f
7:10pm 7 8 mph 1007.8mb 46f
7:00pm 5 9 mph 1007.8mb 46f
6:50pm 8 10 mph 1007.8mb 46f
6:40pm 10 15 mph 1007.8mb 46f
6:30pm 11 13 mph 1007.5mb 46f
6:20pm 9 10 mph 1007.5mb 46f
6:10pm 9
mph
1007.1mb 47f
6:00pm 8 9 mph 1007.5mb 48f
5:50pm 6 7 mph 1007.5mb 49f
5:40pm 3 7 mph 1007.5mb 49f
5:30pm 7 8 mph 1007.1mb 49f
5:20pm 8 9 mph 1007.1mb 49f
5:10pm 6 10 mph 1007.5mb 49f
5:00pm 10 11 mph 1006.8mb 49f
4:50pm 9 10 mph 1007.1mb 49f
4:40pm 9
mph
1007.1mb 49f
4:30pm 8 9 mph 1007.5mb 49f
4:20pm 9 11 mph 1007.5mb 48f
4:10pm 11 13 mph 1007.5mb 48f
4:00pm 10 13 mph 1007.8mb 48f
3:50pm 10 11 mph 1007.8mb 48f
3:40pm 10 13 mph 1007.8mb 48f
3:30pm 11 14 mph 1008.1mb 48f
3:20pm 13 14 mph 1008.1mb 47f
3:10pm 11 14 mph 1008.5mb 47f
3:00pm 11 15 mph 1008.5mb 47f
2:50pm 14 16 mph 1008.8mb 47f
2:40pm 15 17 mph 1008.8mb 47f
2:30pm 17 21 mph 1008.8mb 47f
2:20pm 16 18 mph 1009.1mb 47f
2:10pm 15 20 mph 1009.5mb 47f
2:00pm 15 18 mph 1009.5mb 47f
1:50pm 16 20 mph 1009.8mb 47f
1:40pm 16 18 mph 1009.8mb 47f
1:30pm 15 17 mph 1010.5mb 47f
1:20pm 16 17 mph 1010.8mb 47f
1:10pm 14 16 mph 1010.8mb 47f
1:00pm 11 16 mph 1011.2mb 47f
12:50pm 17 18 mph 1011.2mb 47f
12:40pm 17 21 mph 1011.2mb 47f
12:30pm 18 21 mph 1010.8mb 47f
12:20pm 18 24 mph 1011.2mb 47f
12:10pm 20 22 mph 1011.2mb 46f
12:00pm 21 23 mph 1011.5mb 46f
11:50am 18 23 mph 1011.5mb 46f
11:40am 21 23 mph 1011.9mb 46f
11:30am 21 23 mph 1012.2mb 46f
11:20am 21 23 mph 1012.9mb 46f
11:10am 21 24 mph 1012.9mb 46f
11:00am 21 23 mph 1012.9mb 46f
10:50am 21 24 mph 1013.2mb 46f
10:40am 23 26 mph 1013.2mb 46f
10:30am 21 24 mph 1013.5mb 46f
10:20am 22 25 mph 1013.9mb 45f
10:10am 22 24 mph 1013.9mb 45f
10:00am 23 25 mph 1013.9mb 45f
9:50am 21 28 mph 1014.6mb 45f
9:40am 22 25 mph 1013.9mb 45f
9:30am 20 25 mph 1014.6mb 45f
9:20am 22 25 mph 1014.6mb 45f
9:10am 20 28 mph 1014.9mb 45f
9:00am 22 26 mph 1014.9mb 45f
8:50am 24 28 mph 1014.2mb 44f
8:40am 25 33 mph 1014.2mb 45f
8:30am 31 36 mph 1013.5mb 45f
8:20am 25 33 mph 1014.2mb 44f
8:10am 31 39 mph 1013.5mb 44f
8:00am 31 39 mph 1012.9mb 44f
7:50am 32 38 mph 1013.2mb 44f
7:40am 31 38 mph 1013.5mb 44f
7:30am 31 37 mph 1013.9mb 43f
7:20am 31 34 mph 1015.2mb 42f
7:10am 31 36 mph 1015.2mb 42f
7:00am 28 31 mph 1016.6mb 42f
6:50am 26 29 mph 1016.9mb 41f
6:40am 26 30 mph 1017.3mb 41f
6:30am 23 26 mph 1019mb 41f
6:20am 23 25 mph 1019mb 42f
6:10am 20 29 mph 1018.3mb 42f
6:00am 20 28 mph 1017.6mb 42f
5:50am 18 30 mph 1016.9mb 43f
5:40am 25 28 mph 1015.2mb 43f
5:30am 24 26 mph 1015.6mb 43f
5:20am 17 22 mph 1016.6mb 43f
5:10am 15 24 mph 1018.3mb 44f
5:00am 23 29 mph 1015.2mb 44f
4:50am 22 32 mph 1014.9mb 44f
4:40am 26 30 mph 1014.6mb 44f
4:30am 26 31 mph 1014.9mb 44f
4:20am 30 32 mph 1014.2mb 44f
4:10am 24 26 mph 1015.6mb 44f
4:00am 21 28 mph 1016.6mb 44f
3:50am 23 29 mph 1016.6mb 44f
3:40am 28 31 mph 1016.6mb 44f
3:30am 28 31 mph 1016.9mb 44f
3:20am 29 31 mph 1016.9mb 44f
3:10am 23 28 mph 1017.6mb 44f
3:00am 25 30 mph 1017.9mb 44f
2:50am 26 32 mph 1017.9mb 44f
2:40am 28 30 mph 1017.9mb 44f
2:30am 25 29 mph 1019mb 44f
2:20am 23 26 mph 1019.3mb 44f
2:10am 24 28 mph 1019.6mb 44f
2:00am 25 29 mph 1020mb 45f
1:50am 24 26 mph 1020mb 45f
1:40am 22 25 mph 1020.3mb 45f
1:30am 21 24 mph 1020.7mb 45f
1:20am 23 25 mph 1020.7mb 46f
1:10am 23 25 mph 1020.3mb 46f
1:00am 23 25 mph 1020.3mb 46f
12:50am 24 25 mph 1020mb 46f
12:40am 18 21 mph 1020.7mb 46f
12:30am 18 23 mph 1020.3mb 45f
12:20am 22 26 mph 1020mb 45f
12:10am 25 28 mph 1019.6mb 45f
12:00am 24 31 mph 1019.6mb 45f
Wed 04/19 11:50pm 28 31 mph 1019.3mb 46f
11:40pm 28 31 mph 1019.3mb 46f
11:30pm 29 31 mph 1019.6mb 47f
11:20pm 26 31 mph 1019.6mb 47f
11:10pm 24 28 mph 1020.3mb 48f
11:00pm 17 21 mph 1020.3mb 47f
10:50pm 16 17 mph 1020mb 47f
10:40pm 13 15 mph 1020.7mb 47f
10:30pm 11 14 mph 1021mb 47f
10:20pm 9 10 mph 1021.3mb 47f
10:10pm 9 13 mph 1021.3mb 47f
10:00pm 11 14 mph 1021.3mb 47f
9:50pm 14 15 mph 1021mb 47f
9:40pm 14 17 mph 1021.3mb 47f
9:30pm 16 18 mph 1021mb 48f
9:20pm 18 23 mph 1020.7mb 48f
9:10pm 22 25 mph 1020.7mb 48f
9:00pm 25 29 mph 1020.7mb 48f
8:50pm 24 28 mph 1020.3mb 48f
8:40pm 24 28 mph 1020.3mb 48f
8:30pm 25 29 mph 1020mb 48f
8:20pm 26 30 mph 1019.6mb 48f
8:10pm 24 29 mph 1019.6mb 48f
8:00pm 23 26 mph 1019.3mb 48f
7:50pm 23 28 mph 1019.3mb 47f
7:40pm 25 29 mph 1019mb 47f
7:30pm 26 29 mph 1019mb 47f
7:20pm 25 29 mph 1018.6mb 47f
7:10pm 26 30 mph 1018.6mb 47f
7:00pm 25 29 mph 1018.6mb 47f
6:50pm 25 31 mph 1018.6mb 47f
6:40pm 25 30 mph 1018.3mb 47f
6:30pm 25 30 mph 1018.3mb 47f
6:20pm 25 30 mph 1017.9mb 47f
6:10pm 25 29 mph 1017.9mb 48f
6:00pm 21 26 mph 1017.9mb 49f